createdAt,value
2022-09-28T00:02:08.244Z,11.20
2022-09-28T00:04:34.809Z,11.25
2022-09-28T00:07:01.454Z,11.18
2022-09-28T00:09:27.881Z,11.14
2022-09-28T00:11:54.256Z,10.96
2022-09-28T00:14:21.101Z,11.07
2022-09-28T00:16:48.654Z,11.13
2022-09-28T00:19:15.576Z,10.95
2022-09-28T00:21:42.305Z,11.08
2022-09-28T00:24:13.318Z,10.94
2022-09-28T00:26:45.809Z,10.89
2022-09-28T00:29:38.489Z,10.80
2022-09-28T00:32:06.473Z,10.88
2022-09-28T00:34:39.851Z,10.94
2022-09-28T00:37:08.834Z,11.05
2022-09-28T00:39:36.221Z,10.99
2022-09-28T00:42:04.095Z,10.93
2022-09-28T00:44:40.831Z,10.88
2022-09-28T00:47:31.183Z,10.76
2022-09-28T00:50:00.696Z,10.88
2022-09-28T00:52:50.597Z,10.78
2022-09-28T00:55:22.475Z,10.93
2022-09-28T00:57:53.051Z,10.98
2022-09-28T01:00:19.540Z,11.06
2022-09-28T01:02:47.481Z,11.02
2022-09-28T01:05:14.749Z,11.12
2022-09-28T01:07:44.185Z,11.06
2022-09-28T01:10:10.621Z,11.13
2022-09-28T01:12:36.941Z,11.10
2022-09-28T01:15:05.493Z,11.13
2022-09-28T01:17:49.130Z,11.08
2022-09-28T01:20:40.189Z,11.08
2022-09-28T01:23:37.375Z,11.37
2022-09-28T01:26:34.272Z,11.41
2022-09-28T01:29:29.799Z,11.28
2022-09-28T01:32:18.989Z,11.29
2022-09-28T01:35:17.569Z,11.26
2022-09-28T01:37:52.992Z,11.22
2022-09-28T01:40:24.520Z,11.34
2022-09-28T01:42:56.828Z,11.33
2022-09-28T01:45:28.634Z,11.51
2022-09-28T01:48:01.834Z,11.48
2022-09-28T01:50:31.066Z,11.38
2022-09-28T01:53:06.343Z,11.44
2022-09-28T01:55:43.928Z,11.40
2022-09-28T01:58:13.282Z,11.47
2022-09-28T02:00:44.431Z,11.72
2022-09-28T02:03:18.558Z,11.45
2022-09-28T02:05:55.181Z,11.24
2022-09-28T02:08:21.460Z,11.10
2022-09-28T02:10:52.831Z,11.13
2022-09-28T02:13:28.255Z,11.07
2022-09-28T02:16:02.720Z,11.09
2022-09-28T02:18:29.386Z,11.08
2022-09-28T02:21:08.910Z,11.10
2022-09-28T02:23:38.462Z,11.09
2022-09-28T02:26:13.857Z,11.17
2022-09-28T02:28:40.325Z,10.92
2022-09-28T02:31:07.065Z,10.85
2022-09-28T02:33:39.730Z,10.77
2022-09-28T02:36:06.745Z,10.82
2022-09-28T02:38:33.253Z,10.94
2022-09-28T02:41:09.187Z,10.93
2022-09-28T02:43:44.242Z,10.96
2022-09-28T02:46:22.524Z,10.88
2022-09-28T02:49:22.462Z,10.88
2022-09-28T02:52:04.074Z,10.92
2022-09-28T02:55:09.403Z,10.87
2022-09-28T02:58:03.530Z,10.76
2022-09-28T03:00:35.272Z,10.74
2022-09-28T03:03:35.977Z,10.76
2022-09-28T03:06:08.871Z,10.73
2022-09-28T03:08:41.250Z,10.58
2022-09-28T03:11:18.105Z,10.51
2022-09-28T03:13:44.861Z,10.45
2022-09-28T03:16:14.415Z,10.33
2022-09-28T03:18:41.217Z,10.24
2022-09-28T03:21:10.843Z,10.04
2022-09-28T03:23:37.456Z,10.06
2022-09-28T03:26:04.013Z,10.11
2022-09-28T03:28:30.504Z,9.93
2022-09-28T03:30:57.145Z,10.03
2022-09-28T03:33:23.564Z,10.31
2022-09-28T03:35:50.619Z,10.44
2022-09-28T03:38:18.497Z,10.61
2022-09-28T03:40:53.266Z,10.78
2022-09-28T03:43:19.631Z,10.47
2022-09-28T03:45:52.919Z,10.39
2022-09-28T03:48:25.142Z,10.28
2022-09-28T03:50:58.689Z,10.19
2022-09-28T03:53:25.863Z,10.15
2022-09-28T03:55:53.286Z,10.10
2022-09-28T03:58:23.008Z,9.95
2022-09-28T04:00:50.195Z,9.89
2022-09-28T04:03:16.743Z,9.78
2022-09-28T04:05:53.391Z,9.78
2022-09-28T04:08:20.207Z,9.65
2022-09-28T04:10:47.208Z,9.65
2022-09-28T04:13:14.244Z,9.66
2022-09-28T04:15:40.641Z,9.70
2022-09-28T04:18:13.540Z,9.65
2022-09-28T04:20:45.376Z,9.73
2022-09-28T04:23:12.322Z,9.75
2022-09-28T04:25:39.597Z,9.65
2022-09-28T04:28:24.917Z,9.58
2022-09-28T04:30:51.279Z,9.73
2022-09-28T04:33:17.697Z,9.52
2022-09-28T04:35:44.123Z,9.49
2022-09-28T04:38:10.511Z,9.48
2022-09-28T04:40:36.954Z,9.54
2022-09-28T04:43:03.356Z,9.54
2022-09-28T04:45:29.782Z,9.39
2022-09-28T04:47:56.187Z,9.18
2022-09-28T04:50:22.637Z,9.11
2022-09-28T04:52:48.999Z,9.16
2022-09-28T04:55:16.815Z,9.03
2022-09-28T04:57:43.190Z,8.81
2022-09-28T05:00:11.500Z,8.84
2022-09-28T05:02:38.062Z,8.72
2022-09-28T05:05:04.823Z,8.64
2022-09-28T05:07:31.183Z,8.69
2022-09-28T05:09:57.627Z,8.60
2022-09-28T05:12:24.400Z,8.58
2022-09-28T05:14:50.775Z,8.49
2022-09-28T05:17:17.151Z,8.44
2022-09-28T05:19:43.497Z,8.46
2022-09-28T05:22:14.655Z,8.39
2022-09-28T05:24:41.185Z,8.52
2022-09-28T05:27:07.605Z,8.52
2022-09-28T05:29:33.951Z,8.51
2022-09-28T05:32:01.627Z,8.47
2022-09-28T05:34:28.707Z,8.40
2022-09-28T05:36:55.121Z,8.41
2022-09-28T05:39:21.458Z,8.44
2022-09-28T05:41:47.856Z,8.39
2022-09-28T05:44:14.248Z,8.37
2022-09-28T05:46:40.648Z,8.52
2022-09-28T05:49:07.186Z,8.47
2022-09-28T05:51:33.518Z,8.65
2022-09-28T05:54:05.385Z,8.72
2022-09-28T05:56:32.270Z,8.93
2022-09-28T05:58:58.888Z,8.79
2022-09-28T06:01:25.396Z,8.83
2022-09-28T06:03:51.797Z,8.92
2022-09-28T06:06:18.128Z,8.97
2022-09-28T06:08:46.204Z,8.95
2022-09-28T06:11:12.748Z,9.00
2022-09-28T06:13:39.941Z,9.07
2022-09-28T06:16:08.106Z,9.09
2022-09-28T06:18:34.600Z,9.02
2022-09-28T06:21:01.394Z,9.27
2022-09-28T06:23:27.749Z,9.31
2022-09-28T06:25:54.103Z,9.50
2022-09-28T06:28:20.455Z,9.48
2022-09-28T06:30:48.159Z,9.71
2022-09-28T06:33:14.990Z,9.65
2022-09-28T06:35:42.212Z,9.77
2022-09-28T06:38:09.085Z,9.97
2022-09-28T06:40:36.270Z,9.99
2022-09-28T06:43:06.569Z,10.28
2022-09-28T06:45:32.924Z,10.29
2022-09-28T06:48:01.168Z,10.40
2022-09-28T06:50:33.349Z,10.33
2022-09-28T06:53:00.930Z,10.46
2022-09-28T06:55:28.438Z,10.49
2022-09-28T06:57:59.657Z,10.43
2022-09-28T07:06:23.701Z,10.63
2022-09-28T07:09:10.293Z,10.62
2022-09-28T07:12:06.379Z,10.58
2022-09-28T07:15:02.161Z,10.81
2022-09-28T07:17:57.001Z,10.84
2022-09-28T07:20:50.368Z,11.32
2022-09-28T07:23:27.820Z,10.95
2022-09-28T07:26:03.911Z,11.13
2022-09-28T07:28:42.642Z,10.96
2022-09-28T07:31:16.208Z,11.18
2022-09-28T07:33:52.533Z,11.21
2022-09-28T07:36:21.311Z,11.13
2022-09-28T07:38:51.277Z,11.32
2022-09-28T07:41:34.877Z,11.45
2022-09-28T07:44:08.070Z,11.69
2022-09-28T07:46:43.611Z,11.28
2022-09-28T07:49:19.523Z,11.44
2022-09-28T07:51:53.829Z,11.43
2022-09-28T07:54:28.815Z,11.62
2022-09-28T07:59:40.985Z,11.82
2022-09-28T08:02:09.812Z,12.23
2022-09-28T08:04:36.168Z,12.26
2022-09-28T08:07:03.055Z,12.25
2022-09-28T08:09:29.841Z,12.33
2022-09-28T08:11:57.726Z,12.25
2022-09-28T08:14:24.685Z,12.37
2022-09-28T08:16:53.367Z,12.18
2022-09-28T08:19:19.837Z,12.02
2022-09-28T08:21:46.221Z,12.12
2022-09-28T08:24:17.956Z,12.30
2022-09-28T08:26:44.848Z,12.72
2022-09-28T08:29:11.294Z,12.78
2022-09-28T08:31:37.677Z,12.88
2022-09-28T08:34:04.124Z,12.87
2022-09-28T08:36:30.460Z,12.88
2022-09-28T08:38:56.957Z,12.88
2022-09-28T08:41:55.659Z,13.07
2022-09-28T08:44:24.999Z,13.16
2022-09-28T08:47:05.337Z,13.40
2022-09-28T08:49:38.766Z,13.44
2022-09-28T08:52:08.129Z,13.46
2022-09-28T08:54:44.376Z,13.55
2022-09-28T08:57:22.813Z,13.32
2022-09-28T08:59:54.601Z,13.71
2022-09-28T09:02:39.225Z,13.55
2022-09-28T09:05:14.722Z,13.69
2022-09-28T09:08:01.921Z,14.21
2022-09-28T09:10:44.481Z,13.76
2022-09-28T09:13:32.085Z,13.82
2022-09-28T09:16:16.378Z,13.69
2022-09-28T09:18:54.505Z,13.99
2022-09-28T09:21:41.677Z,14.34
2022-09-28T09:24:18.759Z,14.49
2022-09-28T09:26:45.664Z,14.58
2022-09-28T09:29:27.367Z,14.13
2022-09-28T09:32:08.079Z,14.06
2022-09-28T09:34:45.325Z,14.17
2022-09-28T09:37:54.176Z,14.01
2022-09-28T09:40:27.337Z,14.01
2022-09-28T09:43:12.706Z,14.08
2022-09-28T09:45:58.036Z,14.20
2022-09-28T09:48:47.717Z,14.05
2022-09-28T09:51:26.453Z,14.07
2022-09-28T09:54:00.309Z,13.80
2022-09-28T09:56:38.442Z,14.04
2022-09-28T09:59:18.023Z,14.29
2022-09-28T10:01:44.811Z,14.23
2022-09-28T10:04:21.078Z,14.05
2022-09-28T10:06:49.753Z,13.97
2022-09-28T10:09:43.810Z,14.00
2022-09-28T10:12:15.499Z,14.12
2022-09-28T10:14:42.070Z,13.83
2022-09-28T10:17:15.293Z,13.81
2022-09-28T10:19:42.555Z,14.03
2022-09-28T10:22:17.960Z,14.19
2022-09-28T10:24:48.743Z,14.08
2022-09-28T10:27:23.614Z,14.20
2022-09-28T10:29:54.444Z,13.81
2022-09-28T10:32:24.138Z,13.80
2022-09-28T10:34:52.505Z,14.00
2022-09-28T10:37:19.530Z,14.20
2022-09-28T10:39:50.731Z,14.20
2022-09-28T10:42:20.996Z,14.29
2022-09-28T10:44:52.842Z,14.33
2022-09-28T10:47:21.980Z,14.20
2022-09-28T10:49:51.077Z,14.22
2022-09-28T10:52:40.253Z,14.21
2022-09-28T10:55:32.981Z,14.47
2022-09-28T10:58:00.364Z,14.30
2022-09-28T11:00:41.719Z,14.26
2022-09-28T11:03:20.609Z,14.28
2022-09-28T11:06:13.297Z,14.50
2022-09-28T11:08:44.551Z,14.41
2022-09-28T11:11:15.184Z,14.55
2022-09-28T11:13:53.483Z,14.65
2022-09-28T11:16:29.441Z,14.83
2022-09-28T11:18:57.687Z,14.82
2022-09-28T11:21:27.639Z,14.63
2022-09-28T11:24:19.513Z,14.93
2022-09-28T11:26:50.605Z,14.59
2022-09-28T11:29:32.370Z,14.87
2022-09-28T11:32:04.106Z,14.96
2022-09-28T11:34:57.873Z,14.92
2022-09-28T11:37:47.403Z,14.68
2022-09-28T11:40:38.392Z,14.37
2022-09-28T11:43:17.276Z,14.42
2022-09-28T11:46:09.086Z,14.58
2022-09-28T11:48:47.538Z,14.46
2022-09-28T11:51:23.079Z,14.48
2022-09-28T11:53:55.525Z,14.91
2022-09-28T11:56:35.918Z,15.00
2022-09-28T11:59:18.805Z,15.22
2022-09-28T12:01:56.676Z,15.25
2022-09-28T12:04:38.010Z,15.41
2022-09-28T12:07:19.576Z,15.62
2022-09-28T12:09:53.548Z,15.55
2022-09-28T12:12:22.497Z,15.07
2022-09-28T12:14:54.208Z,15.01
2022-09-28T12:17:30.735Z,15.11
2022-09-28T12:20:05.332Z,15.37
2022-09-28T12:22:37.031Z,15.21
2022-09-28T12:25:10.174Z,15.33
2022-09-28T12:27:42.153Z,14.93
2022-09-28T12:30:19.375Z,14.92
2022-09-28T12:33:09.131Z,15.02
2022-09-28T12:36:01.065Z,15.23
2022-09-28T12:39:30.919Z,15.13
2022-09-28T12:42:05.582Z,14.93
2022-09-28T12:44:34.991Z,15.08
2022-09-28T12:47:23.335Z,15.11
2022-09-28T12:50:51.292Z,15.37
2022-09-28T12:53:46.322Z,15.53
2022-09-28T12:56:24.806Z,15.22
2022-09-28T12:59:13.112Z,15.23
2022-09-28T13:01:48.748Z,15.33
2022-09-28T13:04:52.854Z,15.17
2022-09-28T13:07:35.348Z,15.28
2022-09-28T13:10:19.543Z,15.26
2022-09-28T13:13:19.328Z,15.31
2022-09-28T13:15:57.665Z,15.30
2022-09-28T13:18:42.709Z,15.29
2022-09-28T13:21:21.377Z,15.34
2022-09-28T13:23:57.842Z,15.34
2022-09-28T13:26:40.238Z,15.36
2022-09-28T13:29:15.909Z,15.31
2022-09-28T13:32:03.400Z,15.40
2022-09-28T13:34:33.320Z,15.37
2022-09-28T13:37:25.487Z,15.44
2022-09-28T13:39:52.940Z,15.43
2022-09-28T13:42:41.592Z,15.68
2022-09-28T13:45:23.105Z,15.61
2022-09-28T13:48:12.939Z,15.65
2022-09-28T13:51:23.215Z,16.16
2022-09-28T13:54:01.792Z,15.80
2022-09-28T13:56:49.123Z,15.60
2022-09-28T13:59:24.275Z,15.41
2022-09-28T14:02:00.719Z,15.48
2022-09-28T14:04:59.750Z,15.77
2022-09-28T14:07:35.164Z,15.47
2022-09-28T14:10:07.882Z,15.37
2022-09-28T14:12:34.166Z,15.37
2022-09-28T14:15:01.445Z,15.50
2022-09-28T14:17:28.047Z,15.49
2022-09-28T14:20:02.580Z,15.56
2022-09-28T14:22:42.912Z,15.58
2022-09-28T14:25:23.519Z,15.77
2022-09-28T14:28:01.901Z,15.59
2022-09-28T14:30:43.514Z,15.68
2022-09-28T14:33:31.788Z,15.80
2022-09-28T14:36:06.311Z,15.77
2022-09-28T14:39:02.859Z,15.50
2022-09-28T14:41:35.457Z,15.52
2022-09-28T14:44:02.575Z,15.51
2022-09-28T14:46:32.073Z,15.74
2022-09-28T14:49:25.864Z,15.91
2022-09-28T14:51:55.808Z,15.59
2022-09-28T14:54:45.195Z,15.60
2022-09-28T14:57:25.475Z,15.50
2022-09-28T14:59:52.102Z,15.54
2022-09-28T15:02:23.406Z,15.46
2022-09-28T15:04:56.566Z,15.50
2022-09-28T15:07:29.701Z,15.52
2022-09-28T15:09:58.282Z,15.48
2022-09-28T15:12:30.142Z,15.40
2022-09-28T15:15:04.628Z,15.50
2022-09-28T15:17:39.834Z,15.35
2022-09-28T15:20:24.550Z,15.24
2022-09-28T15:22:57.193Z,15.35
2022-09-28T15:25:29.200Z,15.26
2022-09-28T15:28:06.455Z,15.05
2022-09-28T15:30:35.330Z,15.09
2022-09-28T15:33:22.903Z,15.19
2022-09-28T15:36:01.241Z,15.10
2022-09-28T15:38:29.053Z,14.98
2022-09-28T15:40:56.042Z,14.95
2022-09-28T15:43:30.441Z,15.32
2022-09-28T15:46:13.342Z,15.03
2022-09-28T15:48:57.204Z,14.96
2022-09-28T15:51:24.449Z,14.98
2022-09-28T15:53:58.174Z,14.99
2022-09-28T15:56:25.580Z,14.97
2022-09-28T15:59:25.152Z,14.91
2022-09-28T16:02:07.533Z,15.02
2022-09-28T16:04:53.973Z,14.94
2022-09-28T16:07:20.334Z,14.97
2022-09-28T16:10:12.720Z,15.12
2022-09-28T16:12:48.046Z,15.21
2022-09-28T16:15:20.611Z,15.05
2022-09-28T16:18:06.751Z,14.99
2022-09-28T16:20:41.000Z,15.26
2022-09-28T16:23:21.067Z,15.00
2022-09-28T16:26:03.038Z,14.95
2022-09-28T16:28:38.161Z,15.09
2022-09-28T16:31:04.656Z,14.95
2022-09-28T16:33:41.207Z,14.90
2022-09-28T16:36:12.451Z,14.86
2022-09-28T16:38:38.835Z,14.68
2022-09-28T16:41:05.981Z,14.39
2022-09-28T16:43:36.508Z,14.22
2022-09-28T16:46:12.675Z,14.33
2022-09-28T16:48:48.907Z,14.28
2022-09-28T16:51:16.447Z,14.23
2022-09-28T16:54:02.559Z,14.12
2022-09-28T16:56:29.700Z,14.03
2022-09-28T16:58:56.759Z,13.75
2022-09-28T17:01:23.910Z,13.46
2022-09-28T17:03:51.005Z,13.53
2022-09-28T17:06:19.194Z,13.55
2022-09-28T17:08:45.624Z,13.40
2022-09-28T17:11:22.775Z,13.40
2022-09-28T17:13:51.731Z,12.89
2022-09-28T17:16:36.690Z,12.85
2022-09-28T17:19:28.559Z,12.93
2022-09-28T17:21:54.923Z,13.16
2022-09-28T17:24:21.451Z,13.11
2022-09-28T17:26:50.877Z,13.10
2022-09-28T17:29:18.558Z,12.94
2022-09-28T17:31:46.529Z,12.75
2022-09-28T17:34:15.922Z,12.83
2022-09-28T17:36:43.507Z,12.69
2022-09-28T17:39:14.326Z,12.71
2022-09-28T17:41:41.011Z,12.77
2022-09-28T17:44:07.878Z,12.79
2022-09-28T17:46:37.008Z,12.88
2022-09-28T17:49:05.666Z,12.73
2022-09-28T17:51:37.432Z,12.75
2022-09-28T17:54:05.316Z,12.59
2022-09-28T17:56:32.766Z,12.28
2022-09-28T17:59:01.176Z,12.13
2022-09-28T18:01:33.661Z,11.99
2022-09-28T18:04:01.741Z,11.80
2022-09-28T18:06:28.199Z,11.78
2022-09-28T18:08:54.765Z,11.73
2022-09-28T18:11:21.437Z,11.78
2022-09-28T18:13:47.795Z,11.80
2022-09-28T18:16:15.015Z,11.80
2022-09-28T18:18:41.583Z,11.67
2022-09-28T18:21:08.166Z,11.61
2022-09-28T18:23:38.467Z,11.45
2022-09-28T18:26:11.013Z,11.49
2022-09-28T18:28:37.562Z,11.42
2022-09-28T18:31:13.524Z,11.43
2022-09-28T18:33:40.701Z,11.40
2022-09-28T18:36:07.892Z,11.45
2022-09-28T18:38:38.223Z,11.31
2022-09-28T18:41:08.775Z,11.38
2022-09-28T18:43:36.428Z,11.30
2022-09-28T18:46:07.543Z,11.10
2022-09-28T18:48:34.021Z,11.02
2022-09-28T18:51:00.333Z,11.03
2022-09-28T18:53:26.879Z,11.06
2022-09-28T18:55:53.259Z,10.97
2022-09-28T18:58:19.617Z,10.92
2022-09-28T19:00:46.358Z,10.86
2022-09-28T19:03:14.341Z,10.79
2022-09-28T19:05:42.361Z,10.61
2022-09-28T19:08:10.061Z,10.73
2022-09-28T19:10:36.706Z,10.76
2022-09-28T19:13:03.053Z,10.85
2022-09-28T19:15:29.474Z,10.75
2022-09-28T19:17:57.033Z,10.66
2022-09-28T19:20:23.622Z,10.70
2022-09-28T19:22:50.521Z,10.74
2022-09-28T19:25:17.011Z,10.62
2022-09-28T19:27:43.761Z,10.51
2022-09-28T19:30:10.631Z,10.49
2022-09-28T19:32:37.863Z,10.32
2022-09-28T19:35:05.077Z,10.32
2022-09-28T19:37:35.258Z,10.28
2022-09-28T19:40:03.734Z,10.13
2022-09-28T19:42:30.122Z,10.00
2022-09-28T19:44:56.494Z,10.04
2022-09-28T19:47:23.087Z,10.02
2022-09-28T19:49:50.002Z,9.96
2022-09-28T19:52:17.330Z,9.74
2022-09-28T19:54:48.267Z,9.63
2022-09-28T19:57:15.754Z,9.63
2022-09-28T19:59:42.374Z,9.77
2022-09-28T20:02:10.725Z,9.61
2022-09-28T20:04:37.196Z,9.35
2022-09-28T20:07:04.321Z,9.37
2022-09-28T20:09:32.186Z,9.36
2022-09-28T20:11:58.636Z,9.24
2022-09-28T20:14:26.459Z,9.20
2022-09-28T20:16:57.067Z,9.20
2022-09-28T20:19:23.483Z,8.90
2022-09-28T20:21:50.571Z,8.95
2022-09-28T20:24:17.399Z,8.81
2022-09-28T20:26:44.550Z,8.81
2022-09-28T20:29:11.341Z,8.73
2022-09-28T20:31:38.191Z,8.72
2022-09-28T20:34:06.523Z,8.74
2022-09-28T20:36:33.548Z,8.82
2022-09-28T20:39:04.288Z,8.70
2022-09-28T20:41:35.461Z,8.84
2022-09-28T20:44:05.568Z,8.79
2022-09-28T20:46:32.883Z,8.58
2022-09-28T20:48:59.603Z,8.40
2022-09-28T20:51:26.263Z,8.37
2022-09-28T20:53:55.438Z,8.50
2022-09-28T20:56:30.465Z,8.41
2022-09-28T20:58:57.098Z,8.21
2022-09-28T21:01:28.499Z,8.06
2022-09-28T21:03:57.387Z,8.17
2022-09-28T21:06:29.301Z,8.01
2022-09-28T21:08:55.733Z,8.19
2022-09-28T21:11:24.438Z,8.14
2022-09-28T21:13:58.034Z,7.99
2022-09-28T21:16:25.957Z,8.01
2022-09-28T21:18:52.279Z,7.92
2022-09-28T21:21:20.310Z,7.96
2022-09-28T21:23:47.074Z,7.98
2022-09-28T21:26:16.092Z,8.19
2022-09-28T21:28:44.585Z,8.09
2022-09-28T21:31:12.058Z,8.17
2022-09-28T21:33:38.559Z,8.24
2022-09-28T21:36:06.752Z,8.26
2022-09-28T21:38:34.223Z,8.14
2022-09-28T21:41:01.017Z,8.03
2022-09-28T21:43:28.715Z,7.87
2022-09-28T21:45:56.153Z,7.80
2022-09-28T21:48:24.300Z,7.90
2022-09-28T21:51:05.096Z,7.78
2022-09-28T21:53:34.506Z,7.66
2022-09-28T21:56:02.001Z,7.60
2022-09-28T21:58:30.472Z,7.60
2022-09-28T22:01:07.080Z,7.65
2022-09-28T22:03:35.330Z,7.65
2022-09-28T22:06:05.233Z,7.77
2022-09-28T22:08:32.126Z,7.73
2022-09-28T22:11:11.185Z,7.76
2022-09-28T22:13:48.006Z,7.83
2022-09-28T22:16:16.313Z,7.73
2022-09-28T22:18:43.320Z,7.79
2022-09-28T22:21:16.602Z,7.76
2022-09-28T22:23:43.112Z,7.89
2022-09-28T22:26:18.842Z,7.85
2022-09-28T22:28:47.919Z,8.01
2022-09-28T22:31:15.856Z,7.97
2022-09-28T22:33:42.323Z,7.83
2022-09-28T22:36:08.876Z,7.72
2022-09-28T22:38:35.631Z,7.70
2022-09-28T22:41:03.615Z,7.61
2022-09-28T22:43:30.677Z,7.77
2022-09-28T22:46:09.529Z,7.75
2022-09-28T22:48:36.833Z,7.84
2022-09-28T22:51:05.245Z,7.81
2022-09-28T22:53:32.178Z,7.81
2022-09-28T22:56:00.629Z,7.82
2022-09-28T22:58:27.758Z,7.70
2022-09-28T23:00:57.457Z,7.68
2022-09-28T23:03:23.958Z,7.69
2022-09-28T23:05:54.905Z,7.63
2022-09-28T23:08:22.355Z,7.34
2022-09-28T23:10:49.203Z,7.16
2022-09-28T23:13:15.922Z,7.22
2022-09-28T23:15:42.367Z,7.13
2022-09-28T23:18:09.280Z,7.08
2022-09-28T23:20:36.481Z,7.10
2022-09-28T23:23:02.860Z,7.06
2022-09-28T23:25:29.243Z,7.00
2022-09-28T23:27:55.687Z,6.92
2022-09-28T23:30:23.618Z,6.99
2022-09-28T23:32:52.062Z,7.10
2022-09-28T23:35:18.440Z,7.09
2022-09-28T23:37:49.587Z,7.45
2022-09-28T23:40:15.953Z,7.06
2022-09-28T23:42:42.285Z,7.04
2022-09-28T23:45:09.314Z,7.00
2022-09-28T23:47:37.423Z,7.04
2022-09-28T23:50:05.958Z,7.17
2022-09-28T23:52:32.728Z,7.30
2022-09-28T23:54:59.145Z,7.38
2022-09-28T23:57:25.501Z,7.38
2022-09-28T23:59:53.106Z,7.38
